Annandale, Minnesota
Current Conditions -  °F | °C
As of 1:54 AM on Friday 24 Oct 2014 (Local Time) from KMGG Reporting Station
Clear Clear  
Wind Chill: 48°   Ceiling: Unl
Heat Index: 48°   Visibility: 10mi
Dew Point: 42°   Wind: 3mph
Humidity: 80%   Direction: 150°SSE
Pressure: 29.93"   Gusts: NA
Location:  45.26°N, 94.12°W
Report Text: KMGG 240654Z AUTO 15003KT 10SM CLR 09/06 A2993 RMK AO2 T00880055
Loading
Personal Weather Stations






























Interactive Weather Map
Tropical Storm Tracking
New forecast layout! Learn more

10-Day Weather Forecast

Advertisements
Track Severe Weather on mobile